Albemarle Island — C6LU3 — position and weather

sailwx.info

Track history (hours):
 
Tides and Currents Weather Stations Pressure Air Temp Water Temp Dewpoint Dewpoint Depression Visibility Wind Speed Wind Dir Waves Ship Positions

Albemarle Island

Last reported at 2016-Jul-25 10:00 UTC. Time now 2016-Jul-26 00:39 UTC.
Position N 35°12' W 042°36'.

Type: Cargo ship. MMSI: 308511000.

Wind from 090 at 10 knots

Waves 0.5 meters (2 feet), 3 second period

Barometer 1025.0 mb
Air temperature 25.0 ° C
Visibility: greater than 10.8 NM
Dewpoint 24.0 ° C

Date/timePositionNaut miles runAvg speedWind from/ knotsBaromVisibWave heightAir tempDewpointWater temp
2016-Jul-25 10:00N 35°12' W 042°36'59815.5 090 / 101025.010.8 0.525.024.0
2016-Jul-23 19:28N 39°34' W 031°19'5316.3
2016-Jul-23 16:14N 39°37' W 030°11'1115.9
2016-Jul-23 15:33N 39°42' W 029°58'1615.7
2016-Jul-23 14:33N 39°49' W 029°40'1515.4
2016-Jul-23 13:33N 39°57' W 029°23'1515.3
2016-Jul-23 12:34N 40°04' W 029°05'1615.6
2016-Jul-23 11:33N 40°11' W 028°47'  
2016-Jul-20 10:30N 49°45' W 003°59'3415.9
2016-Jul-20 08:22N 49°57' W 003°10'1414.2
2016-Jul-20 07:24N 50°01' W 002°50'1213.9
2016-Jul-20 06:32N 50°04' W 002°31'1414.5
2016-Jul-20 05:33N 50°08' W 002°10'1615.7
2016-Jul-20 04:31N 50°12' W 001°45'2117.9
2016-Jul-20 03:21N 50°18' W 001°14'1519.3
2016-Jul-20 02:34N 50°22' W 000°51'1919.2
2016-Jul-20 01:33N 50°27' W 000°22'1818.0
2016-Jul-20 00:33N 50°32' E 000°06'1717.1
2016-Jul-19 23:33N 50°36' E 000°32'1815.7
2016-Jul-19 22:25N 50°45' E 000°56'1315.7
2016-Jul-19 21:33N 50°53' E 001°13'1717.4
2016-Jul-19 20:33N 51°05' E 001°33'1919.3
2016-Jul-19 19:34N 51°19' E 001°54'1514.9
2016-Jul-19 18:33N 51°21' E 002°17'1717.3
2016-Jul-19 17:33N 51°24' E 002°45'1918.7
2016-Jul-19 16:33N 51°25' E 003°15'1717.0
2016-Jul-19 15:33N 51°27' E 003°42'1 1.2
2016-Jul-19 14:32N 51°27' E 003°44'0 0.0
2016-Jul-19 13:32N 51°27' E 003°44'0 0.0
2016-Jul-19 12:29N 51°27' E 003°44'0 0.0
2016-Jul-19 11:32N 51°27' E 003°44'0 0.0
2016-Jul-19 10:29N 51°27' E 003°44'0 0.0
2016-Jul-19 09:31N 51°27' E 003°44'0 0.1
2016-Jul-19 08:33N 51°27' E 003°44'5 5.0
2016-Jul-19 07:33N 51°26' E 003°36'3611.9
2016-Jul-19 04:33N 51°49' E 002°52'1313.2
2016-Jul-19 03:32N 51°56' E 002°33'1312.8
2016-Jul-19 02:33N 52°08' E 002°40'1313.5
2016-Jul-19 01:33N 52°21' E 002°47'1414.1
2016-Jul-19 00:33N 52°34' E 002°57'1514.9
2016-Jul-18 23:33N 52°47' E 003°09'1615.8
2016-Jul-18 22:33N 53°01' E 003°19'1616.4
2016-Jul-18 21:33N 53°17' E 003°27'1616.2
2016-Jul-18 20:33N 53°32' E 003°35'1515.0
2016-Jul-18 19:33N 53°46' E 003°46'1514.9
2016-Jul-18 18:33N 53°55' E 004°06'1514.7
2016-Jul-18 17:33N 54°04' E 004°25'1514.9
2016-Jul-18 16:33N 54°16' E 004°41'1515.3
2016-Jul-18 15:33N 54°28' E 004°56'1615.7
2016-Jul-18 14:32N 54°42' E 005°12'2015.7
2016-Jul-18 13:15N 54°58' E 005°32'23815.2
2016-Jul-17 21:31N 57°50' E 010°31'1414.0
2016-Jul-17 20:33N 57°44' E 010°54'1515.3
2016-Jul-17 19:33N 57°34' E 011°15'1615.5
2016-Jul-17 18:33N 57°21' E 011°31'1615.7
2016-Jul-17 17:33N 57°06' E 011°40'1616.4
2016-Jul-17 16:33N 56°51' E 011°51'1514.6
2016-Jul-17 15:33N 56°37' E 011°44'3816.9
2016-Jul-17 13:19N 56°04' E 011°08'5414.4
2016-Jul-17 09:33N 55°10' E 011°04'1515.3
2016-Jul-17 08:33N 54°56' E 010°56'1515.1
2016-Jul-17 07:33N 54°41' E 010°57'1716.8
2016-Jul-17 06:33N 54°33' E 011°22'2914.5
2016-Jul-17 04:33N 54°32' E 012°13'1716.1
2016-Jul-17 03:30N 54°44' E 012°33'1716.6
2016-Jul-17 02:27N 54°52' E 012°60'3116.5
2016-Jul-17 00:33N 55°01' E 013°51'1616.0
2016-Jul-16 23:33N 55°11' E 014°14'1616.5
2016-Jul-16 22:33N 55°24' E 014°32'1616.2
2016-Jul-16 21:33N 55°32' E 014°57'1716.7
2016-Jul-16 20:33N 55°40' E 015°23'34116.2
2016-Jul-15 23:33N 59°35' E 023°03'1716.6
2016-Jul-15 22:33N 59°40' E 023°35'1716.7
2016-Jul-15 21:33N 59°44' E 024°07'1616.3
2016-Jul-15 20:33N 59°49' E 024°38'5316.2
2016-Jul-15 17:17N 59°60' E 026°21'1216.0
2016-Jul-15 16:33N 60°01' E 026°44'1815.7
2016-Jul-15 15:26N 60°04' E 027°19'1517.1
2016-Jul-15 14:33N 60°12' E 027°45'1716.9
2016-Jul-15 13:33N 60°08' E 028°18'1716.6
2016-Jul-15 12:33N 60°03' E 028°49'2914.3
2016-Jul-15 10:33N 59°58' E 029°46'  
Track history (hours):
 
Tides and Currents Weather Stations Pressure Air Temp Water Temp Dewpoint Dewpoint Depression Visibility Wind Speed Wind Dir Waves Ship Positions

Albemarle Island

Last reported at 2016-Jul-25 10:00 UTC. Time now 2016-Jul-26 00:39 UTC.
Position N 35°12' W 042°36'.

Type: Cargo ship. MMSI: 308511000.

Wind from 090 at 10 knots

Waves 0.5 meters (2 feet), 3 second period

Barometer 1025.0 mb
Air temperature 25.0 ° C
Visibility: greater than 10.8 NM
Dewpoint 24.0 ° C

Date/timePositionNaut miles runAvg speedWind from/ knotsBaromVisibWave heightAir tempDewpointWater temp
2016-Jul-25 10:00N 35°12' W 042°36'59815.5 090 / 101025.010.8 0.525.024.0
2016-Jul-23 19:28N 39°34' W 031°19'5316.3
2016-Jul-23 16:14N 39°37' W 030°11'1115.9
2016-Jul-23 15:33N 39°42' W 029°58'1615.7
2016-Jul-23 14:33N 39°49' W 029°40'1515.4
2016-Jul-23 13:33N 39°57' W 029°23'1515.3
2016-Jul-23 12:34N 40°04' W 029°05'1615.6
2016-Jul-23 11:33N 40°11' W 028°47'  
2016-Jul-20 10:30N 49°45' W 003°59'3415.9
2016-Jul-20 08:22N 49°57' W 003°10'1414.2
2016-Jul-20 07:24N 50°01' W 002°50'1213.9
2016-Jul-20 06:32N 50°04' W 002°31'1414.5
2016-Jul-20 05:33N 50°08' W 002°10'1615.7
2016-Jul-20 04:31N 50°12' W 001°45'2117.9
2016-Jul-20 03:21N 50°18' W 001°14'1519.3
2016-Jul-20 02:34N 50°22' W 000°51'1919.2
2016-Jul-20 01:33N 50°27' W 000°22'1818.0
2016-Jul-20 00:33N 50°32' E 000°06'1717.1
2016-Jul-19 23:33N 50°36' E 000°32'1815.7
2016-Jul-19 22:25N 50°45' E 000°56'1315.7
2016-Jul-19 21:33N 50°53' E 001°13'1717.4
2016-Jul-19 20:33N 51°05' E 001°33'1919.3
2016-Jul-19 19:34N 51°19' E 001°54'1514.9
2016-Jul-19 18:33N 51°21' E 002°17'1717.3
2016-Jul-19 17:33N 51°24' E 002°45'1918.7
2016-Jul-19 16:33N 51°25' E 003°15'1717.0
2016-Jul-19 15:33N 51°27' E 003°42'1 1.2
2016-Jul-19 14:32N 51°27' E 003°44'0 0.0
2016-Jul-19 13:32N 51°27' E 003°44'0 0.0
2016-Jul-19 12:29N 51°27' E 003°44'0 0.0
2016-Jul-19 11:32N 51°27' E 003°44'0 0.0
2016-Jul-19 10:29N 51°27' E 003°44'0 0.0
2016-Jul-19 09:31N 51°27' E 003°44'0 0.1
2016-Jul-19 08:33N 51°27' E 003°44'5 5.0
2016-Jul-19 07:33N 51°26' E 003°36'3611.9
2016-Jul-19 04:33N 51°49' E 002°52'1313.2
2016-Jul-19 03:32N 51°56' E 002°33'1312.8
2016-Jul-19 02:33N 52°08' E 002°40'1313.5
2016-Jul-19 01:33N 52°21' E 002°47'1414.1
2016-Jul-19 00:33N 52°34' E 002°57'1514.9
2016-Jul-18 23:33N 52°47' E 003°09'1615.8
2016-Jul-18 22:33N 53°01' E 003°19'1616.4
2016-Jul-18 21:33N 53°17' E 003°27'1616.2
2016-Jul-18 20:33N 53°32' E 003°35'1515.0
2016-Jul-18 19:33N 53°46' E 003°46'1514.9
2016-Jul-18 18:33N 53°55' E 004°06'1514.7
2016-Jul-18 17:33N 54°04' E 004°25'1514.9
2016-Jul-18 16:33N 54°16' E 004°41'1515.3
2016-Jul-18 15:33N 54°28' E 004°56'1615.7
2016-Jul-18 14:32N 54°42' E 005°12'2015.7
2016-Jul-18 13:15N 54°58' E 005°32'23815.2
2016-Jul-17 21:31N 57°50' E 010°31'1414.0
2016-Jul-17 20:33N 57°44' E 010°54'1515.3
2016-Jul-17 19:33N 57°34' E 011°15'1615.5
2016-Jul-17 18:33N 57°21' E 011°31'1615.7
2016-Jul-17 17:33N 57°06' E 011°40'1616.4
2016-Jul-17 16:33N 56°51' E 011°51'1514.6
2016-Jul-17 15:33N 56°37' E 011°44'3816.9
2016-Jul-17 13:19N 56°04' E 011°08'5414.4
2016-Jul-17 09:33N 55°10' E 011°04'1515.3
2016-Jul-17 08:33N 54°56' E 010°56'1515.1
2016-Jul-17 07:33N 54°41' E 010°57'1716.8
2016-Jul-17 06:33N 54°33' E 011°22'2914.5
2016-Jul-17 04:33N 54°32' E 012°13'1716.1
2016-Jul-17 03:30N 54°44' E 012°33'1716.6
2016-Jul-17 02:27N 54°52' E 012°60'3116.5
2016-Jul-17 00:33N 55°01' E 013°51'1616.0
2016-Jul-16 23:33N 55°11' E 014°14'1616.5
2016-Jul-16 22:33N 55°24' E 014°32'1616.2
2016-Jul-16 21:33N 55°32' E 014°57'1716.7
2016-Jul-16 20:33N 55°40' E 015°23'34116.2
2016-Jul-15 23:33N 59°35' E 023°03'1716.6
2016-Jul-15 22:33N 59°40' E 023°35'1716.7
2016-Jul-15 21:33N 59°44' E 024°07'1616.3
2016-Jul-15 20:33N 59°49' E 024°38'5316.2
2016-Jul-15 17:17N 59°60' E 026°21'1216.0
2016-Jul-15 16:33N 60°01' E 026°44'1815.7
2016-Jul-15 15:26N 60°04' E 027°19'1517.1
2016-Jul-15 14:33N 60°12' E 027°45'1716.9
2016-Jul-15 13:33N 60°08' E 028°18'1716.6
2016-Jul-15 12:33N 60°03' E 028°49'2914.3
2016-Jul-15 10:33N 59°58' E 029°46'  

Dump ship's entire track history